createdAt,value
2023-04-16T00:02:32.212Z,0
2023-04-16T00:05:57.339Z,0
2023-04-16T00:09:22.565Z,0
2023-04-16T00:12:47.815Z,0
2023-04-16T00:16:13.016Z,0
2023-04-16T00:19:38.246Z,0
2023-04-16T00:23:03.469Z,0
2023-04-16T00:26:28.701Z,0
2023-04-16T00:29:53.965Z,0
2023-04-16T00:33:19.172Z,0
2023-04-16T00:36:44.400Z,0
2023-04-16T00:40:09.629Z,0
2023-04-16T00:43:34.875Z,0
2023-04-16T00:47:00.108Z,0
2023-04-16T00:50:25.325Z,0
2023-04-16T00:53:50.549Z,0
2023-04-16T00:57:15.764Z,0
2023-04-16T01:00:40.977Z,0
2023-04-16T01:04:06.287Z,0
2023-04-16T01:07:31.458Z,0
2023-04-16T01:10:56.713Z,0
2023-04-16T01:14:21.960Z,0
2023-04-16T01:17:47.245Z,0
2023-04-16T01:21:12.482Z,0
2023-04-16T01:24:37.703Z,0
2023-04-16T01:28:02.938Z,0
2023-04-16T01:31:28.199Z,0
2023-04-16T01:34:53.402Z,0
2023-04-16T01:38:18.667Z,0
2023-04-16T01:41:43.855Z,0
2023-04-16T01:45:09.056Z,0
2023-04-16T01:48:34.275Z,0
2023-04-16T01:51:59.517Z,0
2023-04-16T01:55:24.783Z,0
2023-04-16T01:58:50.032Z,0
2023-04-16T02:02:15.296Z,0
2023-04-16T02:05:40.519Z,0
2023-04-16T02:09:05.769Z,0
2023-04-16T02:12:31.020Z,0
2023-04-16T02:15:56.249Z,0
2023-04-16T02:19:21.527Z,0
2023-04-16T02:22:46.768Z,0
2023-04-16T02:26:11.991Z,0
2023-04-16T02:29:37.273Z,0
2023-04-16T02:33:02.545Z,0
2023-04-16T02:36:27.764Z,0
2023-04-16T02:39:53.000Z,0
2023-04-16T02:43:18.216Z,0
2023-04-16T02:46:43.471Z,0
2023-04-16T02:50:08.685Z,0
2023-04-16T02:53:33.921Z,0
2023-04-16T02:56:59.309Z,0
2023-04-16T03:00:24.604Z,0
2023-04-16T03:03:49.957Z,0
2023-04-16T03:07:15.078Z,0
2023-04-16T03:10:40.302Z,0
2023-04-16T03:14:05.877Z,0
2023-04-16T03:17:31.156Z,0
2023-04-16T03:20:56.400Z,0
2023-04-16T03:24:21.609Z,0
2023-04-16T03:27:46.853Z,0
2023-04-16T03:31:12.093Z,0
2023-04-16T03:34:37.320Z,0
2023-04-16T03:38:02.590Z,0
2023-04-16T03:41:27.797Z,0
2023-04-16T03:44:53.043Z,0
2023-04-16T03:48:18.275Z,0
2023-04-16T03:51:43.496Z,0
2023-04-16T03:55:08.738Z,0
2023-04-16T03:58:33.940Z,0
2023-04-16T04:01:59.481Z,0
2023-04-16T04:05:24.661Z,0
2023-04-16T04:08:49.882Z,0
2023-04-16T04:12:15.134Z,0
2023-04-16T04:15:40.320Z,0
2023-04-16T04:19:05.554Z,1
2023-04-16T04:22:30.763Z,2
2023-04-16T04:25:56.000Z,2
2023-04-16T04:29:21.195Z,3
2023-04-16T04:32:46.414Z,4
2023-04-16T04:36:11.614Z,4
2023-04-16T04:39:36.831Z,5
2023-04-16T04:43:02.048Z,4
2023-04-16T04:46:27.344Z,5
2023-04-16T04:49:52.460Z,6
2023-04-16T04:53:17.675Z,8
2023-04-16T04:56:42.885Z,11
2023-04-16T05:00:08.092Z,12
2023-04-16T05:03:33.397Z,13
2023-04-16T05:06:58.511Z,15
2023-04-16T05:10:23.716Z,13
2023-04-16T05:13:48.936Z,11
2023-04-16T05:17:14.174Z,11
2023-04-16T05:20:39.407Z,13
2023-04-16T05:24:04.606Z,16
2023-04-16T05:27:29.831Z,19
2023-04-16T05:30:55.061Z,20
2023-04-16T05:34:20.233Z,25
2023-04-16T05:37:45.479Z,31
2023-04-16T05:41:10.662Z,24
2023-04-16T05:44:35.857Z,21
2023-04-16T05:48:01.103Z,20
2023-04-16T05:51:26.298Z,26
2023-04-16T05:54:51.523Z,32
2023-04-16T05:58:16.708Z,42
2023-04-16T06:01:41.918Z,43
2023-04-16T06:05:07.168Z,37
2023-04-16T06:08:32.331Z,42
2023-04-16T06:11:57.562Z,45
2023-04-16T06:15:22.781Z,59
2023-04-16T06:18:47.986Z,70
2023-04-16T06:22:13.228Z,70
2023-04-16T06:25:38.433Z,75
2023-04-16T06:29:03.651Z,66
2023-04-16T06:32:28.881Z,65
2023-04-16T06:35:54.055Z,69
2023-04-16T06:39:19.288Z,63
2023-04-16T06:42:45.597Z,67
2023-04-16T06:46:09.739Z,76
2023-04-16T06:49:34.934Z,87
2023-04-16T06:53:00.146Z,86
2023-04-16T06:56:25.346Z,103
2023-04-16T06:59:50.555Z,100
2023-04-16T07:03:15.914Z,107
2023-04-16T07:06:40.958Z,103
2023-04-16T07:10:06.143Z,118
2023-04-16T07:13:31.332Z,125
2023-04-16T07:16:56.606Z,116
2023-04-16T07:20:21.773Z,106
2023-04-16T07:23:46.957Z,106
2023-04-16T07:27:12.167Z,106
2023-04-16T07:30:37.381Z,110
2023-04-16T07:34:02.592Z,107
2023-04-16T07:37:27.834Z,104
2023-04-16T07:40:53.016Z,105
2023-04-16T07:44:18.233Z,97
2023-04-16T07:47:43.487Z,94
2023-04-16T07:51:08.635Z,91
2023-04-16T07:54:33.859Z,84
2023-04-16T07:57:59.018Z,85
2023-04-16T08:01:24.222Z,104
2023-04-16T08:04:49.483Z,125
2023-04-16T08:08:14.619Z,151
2023-04-16T08:11:39.847Z,165
2023-04-16T08:15:05.046Z,161
2023-04-16T08:18:30.211Z,175
2023-04-16T08:21:55.413Z,174
2023-04-16T08:25:20.616Z,182
2023-04-16T08:28:45.834Z,172
2023-04-16T08:32:11.050Z,196
2023-04-16T08:35:36.255Z,212
2023-04-16T08:39:01.417Z,205
2023-04-16T08:42:26.634Z,213
2023-04-16T08:45:51.868Z,178
2023-04-16T08:49:17.061Z,200
2023-04-16T08:52:42.260Z,276
2023-04-16T08:56:07.452Z,315
2023-04-16T08:59:32.703Z,287
2023-04-16T09:02:58.082Z,260
2023-04-16T09:06:23.141Z,281
2023-04-16T09:09:48.388Z,323
2023-04-16T09:13:13.617Z,314
2023-04-16T09:16:39.092Z,303
2023-04-16T09:20:04.074Z,289
2023-04-16T09:23:29.273Z,245
2023-04-16T09:26:54.478Z,231
2023-04-16T09:30:19.735Z,196
2023-04-16T09:33:45.009Z,188
2023-04-16T09:37:10.346Z,209
2023-04-16T09:40:35.564Z,243
2023-04-16T09:44:00.817Z,167
2023-04-16T09:47:26.118Z,142
2023-04-16T09:50:51.367Z,172
2023-04-16T09:54:16.717Z,248
2023-04-16T09:57:41.985Z,319
2023-04-16T10:01:07.269Z,332
2023-04-16T10:04:32.535Z,320
2023-04-16T10:07:57.844Z,311
2023-04-16T10:11:23.056Z,288
2023-04-16T10:14:49.602Z,220
2023-04-16T10:18:13.502Z,223
2023-04-16T10:21:38.730Z,228
2023-04-16T10:25:03.940Z,230
2023-04-16T10:28:29.163Z,197
2023-04-16T10:31:54.358Z,245
2023-04-16T10:35:19.595Z,331
2023-04-16T10:38:44.902Z,282
2023-04-16T10:42:10.318Z,303
2023-04-16T10:45:35.565Z,287
2023-04-16T10:49:00.883Z,246
2023-04-16T10:52:26.103Z,311
2023-04-16T10:55:51.321Z,208
2023-04-16T10:59:16.520Z,227
2023-04-16T11:02:41.817Z,189
2023-04-16T11:06:06.985Z,178
2023-04-16T11:09:32.229Z,259
2023-04-16T11:12:57.433Z,163
2023-04-16T11:16:22.747Z,148
2023-04-16T11:19:48.009Z,129
2023-04-16T11:23:13.198Z,104
2023-04-16T11:26:38.394Z,147
2023-04-16T11:30:03.597Z,121
2023-04-16T11:33:28.824Z,141
2023-04-16T11:36:54.065Z,106
2023-04-16T11:40:19.298Z,194
2023-04-16T11:43:44.504Z,212
2023-04-16T11:47:09.763Z,160
2023-04-16T11:50:34.943Z,154
2023-04-16T11:54:00.169Z,146
2023-04-16T11:57:25.373Z,211
2023-04-16T12:00:50.596Z,257
2023-04-16T12:04:15.888Z,271
2023-04-16T12:07:41.001Z,220
2023-04-16T12:11:06.274Z,162
2023-04-16T12:14:31.419Z,176
2023-04-16T12:17:56.653Z,157
2023-04-16T12:21:21.929Z,139
2023-04-16T12:24:47.159Z,180
2023-04-16T12:28:12.387Z,156
2023-04-16T12:31:37.600Z,134
2023-04-16T12:35:02.782Z,156
2023-04-16T12:38:27.981Z,172
2023-04-16T12:41:53.201Z,227
2023-04-16T12:45:18.441Z,157
2023-04-16T12:48:43.630Z,115
2023-04-16T12:52:08.829Z,88
2023-04-16T12:55:34.167Z,99
2023-04-16T12:58:59.365Z,146
2023-04-16T13:02:24.752Z,222
2023-04-16T13:05:49.783Z,268
2023-04-16T13:09:14.995Z,385
2023-04-16T13:12:40.208Z,328
2023-04-16T13:16:05.470Z,326
2023-04-16T13:19:30.816Z,247
2023-04-16T13:22:56.032Z,415
2023-04-16T13:26:21.242Z,328
2023-04-16T13:29:46.507Z,146
2023-04-16T13:33:11.707Z,244
2023-04-16T13:36:37.168Z,314
2023-04-16T13:40:02.359Z,346
2023-04-16T13:43:27.572Z,303
2023-04-16T13:46:52.806Z,343
2023-04-16T13:50:18.006Z,358
2023-04-16T13:53:43.296Z,328
2023-04-16T13:57:08.596Z,243
2023-04-16T14:00:33.801Z,295
2023-04-16T14:04:00.315Z,294
2023-04-16T14:07:25.387Z,302
2023-04-16T14:10:50.671Z,309
2023-04-16T14:14:15.939Z,269
2023-04-16T14:17:41.187Z,311
2023-04-16T14:21:06.367Z,306
2023-04-16T14:24:31.581Z,275
2023-04-16T14:27:56.833Z,294
2023-04-16T14:31:22.057Z,275
2023-04-16T14:34:47.223Z,123
2023-04-16T14:38:12.432Z,77
2023-04-16T14:41:37.645Z,40
2023-04-16T14:45:03.109Z,134
2023-04-16T14:48:28.179Z,200
2023-04-16T14:51:53.349Z,167
2023-04-16T14:55:18.558Z,104
2023-04-16T14:58:43.809Z,48
2023-04-16T15:02:09.084Z,55
2023-04-16T15:05:34.247Z,89
2023-04-16T15:39:23.346Z,76
2023-04-16T15:42:48.504Z,40
2023-04-16T15:46:13.718Z,42
2023-04-16T15:49:38.932Z,59
2023-04-16T15:53:04.120Z,58
2023-04-16T15:56:29.375Z,69
2023-04-16T16:00:06.293Z,73
2023-04-16T16:03:21.868Z,94
2023-04-16T16:06:46.995Z,53
2023-04-16T16:10:12.236Z,48
2023-04-16T16:13:37.506Z,43
2023-04-16T16:17:02.738Z,44
2023-04-16T16:20:27.966Z,42
2023-04-16T16:23:53.172Z,52
2023-04-16T16:27:18.942Z,76
2023-04-16T16:31:06.228Z,43
2023-04-16T16:34:31.253Z,20
2023-04-16T16:37:56.454Z,18
2023-04-16T16:41:21.662Z,19
2023-04-16T16:44:46.895Z,13
2023-04-16T16:48:12.173Z,16
2023-04-16T16:51:37.373Z,15
2023-04-16T16:55:02.591Z,16
2023-04-16T16:58:27.790Z,17
2023-04-16T17:01:53.013Z,12
2023-04-16T17:05:18.251Z,11
2023-04-16T17:08:43.437Z,11
2023-04-16T17:12:08.661Z,13
2023-04-16T17:15:33.863Z,14
2023-04-16T17:18:59.123Z,13
2023-04-16T17:22:24.371Z,17
2023-04-16T17:25:49.529Z,13
2023-04-16T17:29:14.736Z,13
2023-04-16T17:32:39.999Z,15
2023-04-16T17:36:05.342Z,9
2023-04-16T17:39:30.746Z,6
2023-04-16T17:42:56.128Z,6
2023-04-16T17:46:21.665Z,6
2023-04-16T17:49:47.026Z,4
2023-04-16T17:53:12.410Z,4
2023-04-16T17:56:37.846Z,2
2023-04-16T18:00:03.184Z,3
2023-04-16T18:03:28.662Z,3
2023-04-16T18:06:53.894Z,1
2023-04-16T18:10:19.251Z,1
2023-04-16T18:13:44.645Z,1
2023-04-16T18:17:10.079Z,0
2023-04-16T18:20:35.389Z,0
2023-04-16T18:24:00.735Z,0
2023-04-16T18:27:26.675Z,0
2023-04-16T18:30:51.532Z,0
2023-04-16T18:34:16.846Z,0
2023-04-16T18:37:42.173Z,0
2023-04-16T18:41:07.524Z,0
2023-04-16T18:44:32.832Z,0
2023-04-16T18:47:58.250Z,0
2023-04-16T18:51:23.513Z,0
2023-04-16T18:54:48.888Z,0
2023-04-16T18:58:14.229Z,0
2023-04-16T19:01:39.539Z,0
2023-04-16T19:05:04.964Z,0
2023-04-16T19:08:30.296Z,0
2023-04-16T19:11:55.671Z,0
2023-04-16T19:15:20.990Z,0
2023-04-16T19:18:46.296Z,0
2023-04-16T19:22:11.622Z,0
2023-04-16T19:25:36.823Z,0
2023-04-16T19:29:02.065Z,0
2023-04-16T19:32:27.273Z,0
2023-04-16T19:35:52.484Z,0
2023-04-16T19:39:17.717Z,0
2023-04-16T19:42:42.903Z,0
2023-04-16T19:46:08.151Z,0
2023-04-16T19:49:34.308Z,0
2023-04-16T19:52:58.531Z,0
2023-04-16T19:56:23.857Z,0
2023-04-16T19:59:49.040Z,0
2023-04-16T20:03:14.266Z,0
2023-04-16T20:06:39.475Z,0
2023-04-16T20:10:04.704Z,0
2023-04-16T20:13:29.954Z,0
2023-04-16T20:16:55.146Z,0
2023-04-16T20:20:20.689Z,0
2023-04-16T20:23:45.907Z,0
2023-04-16T20:27:11.098Z,0
2023-04-16T20:30:36.379Z,0
2023-04-16T20:34:01.525Z,0
2023-04-16T20:37:26.785Z,0
2023-04-16T20:40:51.975Z,0
2023-04-16T20:44:17.195Z,0
2023-04-16T20:47:42.478Z,0
2023-04-16T20:51:07.710Z,0
2023-04-16T20:54:32.891Z,0
2023-04-16T20:57:58.129Z,0
2023-04-16T21:01:23.344Z,0
2023-04-16T21:04:48.618Z,0
2023-04-16T21:08:13.773Z,0
2023-04-16T21:11:38.989Z,0
2023-04-16T21:15:04.190Z,0
2023-04-16T21:18:29.449Z,0
2023-04-16T21:21:54.634Z,0
2023-04-16T21:25:19.821Z,0
2023-04-16T21:28:45.037Z,0
2023-04-16T21:32:10.243Z,0
2023-04-16T21:35:35.481Z,0
2023-04-16T21:39:00.692Z,0
2023-04-16T21:42:25.867Z,0
2023-04-16T21:45:51.053Z,0
2023-04-16T21:49:16.267Z,0
2023-04-16T21:52:41.485Z,0
2023-04-16T21:56:06.717Z,0
2023-04-16T21:59:31.910Z,0
2023-04-16T22:02:57.137Z,0
2023-04-16T22:06:22.326Z,0
2023-04-16T22:09:47.566Z,0
2023-04-16T22:13:12.836Z,0
2023-04-16T22:16:37.977Z,0
2023-04-16T22:20:03.135Z,0
2023-04-16T22:23:28.355Z,0
2023-04-16T22:26:53.550Z,0
2023-04-16T22:30:18.789Z,0
2023-04-16T22:33:43.988Z,0
2023-04-16T22:37:09.184Z,0
2023-04-16T22:40:34.404Z,0
2023-04-16T22:43:59.596Z,0
2023-04-16T22:47:24.900Z,0
2023-04-16T22:50:50.062Z,0
2023-04-16T22:54:15.275Z,0
2023-04-16T22:57:40.477Z,0
2023-04-16T23:01:05.686Z,0
2023-04-16T23:04:31.019Z,0
2023-04-16T23:07:56.089Z,0
2023-04-16T23:11:21.272Z,0
2023-04-16T23:14:46.481Z,0
2023-04-16T23:18:11.711Z,0
2023-04-16T23:21:36.921Z,0
2023-04-16T23:25:02.112Z,0
2023-04-16T23:28:27.348Z,0
2023-04-16T23:31:52.531Z,0
2023-04-16T23:35:17.713Z,0
2023-04-16T23:38:43.059Z,0
2023-04-16T23:42:08.102Z,0
2023-04-16T23:45:33.339Z,0
2023-04-16T23:48:58.537Z,0
2023-04-16T23:52:23.770Z,0
2023-04-16T23:55:48.964Z,0
2023-04-16T23:59:14.273Z,0
